Barth, Mississippi
Current Conditions -  °F | °C
As of 8:35 PM on Wednesday 22 Oct 2014 (Local Time) from KBXA Reporting Station
Clear Clear  
Wind Chill: 60°   Ceiling: Unl
Heat Index: 60°   Visibility: 10mi
Dew Point: 51°   Wind: 3mph
Humidity: 72%   Direction: 30°NNE
Pressure: 30.09"   Gusts: NA
Location:  30.8781°N, 89.5858°W
Report Text: KBXA 230135Z AUTO 03003KT 10SM CLR 16/11 A3009 RMK AO2 T01550105
Loading
Personal Weather Stations






























Interactive Weather Map
Tropical Storm Tracking
New forecast layout! Learn more

10-Day Weather Forecast

Advertisements
Track Severe Weather on mobile